Terminal Aerodrome Forecast
Issued by NWS Twin Cities, MN

Home | Current Version | Previous Version | Graphics & Text | Print | Product List | Glossary On
Versions: 1 2 3 4 5 6 7 8 9 10 11 12 13 14 15 16 17 18 19 20 21 22 23 24 25 26 27
000
FTUS43 KMPX 211700 RRA
TAFMSP
TAF
KMSP 211739Z 2118/2224 14009KT P6SM BKN040
     FM212000 18007KT P6SM SCT040
      TEMPO 2120/2124 6SM -SHRA BR SCT030 BKN050
     FM220400 VRB03KT 6SM BR SCT005
     FM220800 VRB03KT 4SM BR OVC004
      TEMPO 2209/2213 1SM BR OVC001
     FM221400 35007KT P6SM BKN012=

USA.gov is the U.S. government's official web portal to all federal, state and local government web resources and services.